createdAt,value
2018-11-22T00:00:01.120Z,0.7
2018-11-22T00:03:01.386Z,0.6
2018-11-22T00:04:01.119Z,0.5
2018-11-22T00:11:01.365Z,0.4
2018-11-22T00:13:01.069Z,0.3
2018-11-22T00:15:01.096Z,0.3
2018-11-22T00:27:01.354Z,0.4
2018-11-22T00:28:01.090Z,0.3
2018-11-22T00:30:01.088Z,0.4
2018-11-22T00:32:01.295Z,0.3
2018-11-22T00:33:01.090Z,0.4
2018-11-22T00:34:01.125Z,0.5
2018-11-22T00:37:01.293Z,0.6
2018-11-22T00:38:01.091Z,0.5
2018-11-22T00:45:01.364Z,0.4
2018-11-22T00:47:01.091Z,0.5
2018-11-22T00:48:01.092Z,0.4
2018-11-22T00:49:01.095Z,0.3
2018-11-22T00:52:01.373Z,0.2
2018-11-22T00:54:01.097Z,0.1
2018-11-22T01:00:01.301Z,0.1
2018-11-22T01:15:01.409Z,0.1
2018-11-22T01:30:01.396Z,0.1
2018-11-22T06:04:01.090Z,0.1
2018-11-22T06:06:01.357Z,0.2
2018-11-22T06:07:01.092Z,0.3
2018-11-22T06:09:01.109Z,0.4
2018-11-22T06:10:01.094Z,0.5
2018-11-22T06:12:01.392Z,0.6
2018-11-22T06:13:01.105Z,0.7
2018-11-22T06:15:01.068Z,0.9
2018-11-22T06:16:01.100Z,1.0
2018-11-22T06:17:01.297Z,1.1
2018-11-22T06:18:01.081Z,1.3
2018-11-22T06:19:01.097Z,1.4
2018-11-22T06:20:01.100Z,1.5
2018-11-22T06:21:01.096Z,1.7
2018-11-22T06:22:01.338Z,1.8
2018-11-22T06:23:01.097Z,2.0
2018-11-22T06:24:01.099Z,2.3
2018-11-22T06:25:03.682Z,2.6
2018-11-22T06:26:01.097Z,3.0
2018-11-22T06:27:01.301Z,3.5
2018-11-22T06:28:01.097Z,4.1
2018-11-22T06:29:01.096Z,4.7
2018-11-22T06:30:01.101Z,5.4
2018-11-22T06:31:01.563Z,6.1
2018-11-22T06:32:01.353Z,7.1
2018-11-22T06:33:01.099Z,8.3
2018-11-22T06:34:01.101Z,9.5
2018-11-22T06:35:01.103Z,10.9
2018-11-22T06:37:01.326Z,12.7
2018-11-22T06:38:01.091Z,14.9
2018-11-22T06:39:01.090Z,17.4
2018-11-22T06:40:01.088Z,20.1
2018-11-22T06:41:01.054Z,23.1
2018-11-22T06:42:02.983Z,26.4
2018-11-22T06:43:01.091Z,29.9
2018-11-22T06:44:01.057Z,33.9
2018-11-22T06:45:01.090Z,38.3
2018-11-22T06:46:01.090Z,43.2
2018-11-22T06:47:01.296Z,48.5
2018-11-22T06:48:06.096Z,54.3
2018-11-22T06:49:01.089Z,60.9
2018-11-22T06:50:01.089Z,68.5
2018-11-22T06:51:01.090Z,77.5
2018-11-22T06:52:01.303Z,87.4
2018-11-22T06:53:06.091Z,98.4
2018-11-22T06:54:01.093Z,110.2
2018-11-22T06:55:01.093Z,123.8
2018-11-22T06:56:02.045Z,137.5
2018-11-22T06:57:01.301Z,151.7
2018-11-22T06:58:01.117Z,167.7
2018-11-22T06:59:01.107Z,184.3
2018-11-22T07:00:01.092Z,203.1
2018-11-22T07:01:01.092Z,220.7
2018-11-22T07:02:01.333Z,238.7
2018-11-22T07:03:06.094Z,258.1
2018-11-22T07:04:06.094Z,277.5
2018-11-22T07:05:01.097Z,298.2
2018-11-22T07:06:01.095Z,318.5
2018-11-22T07:07:01.300Z,339.5
2018-11-22T07:08:01.095Z,361.3
2018-11-22T07:09:01.135Z,385.1
2018-11-22T07:10:01.093Z,410.9
2018-11-22T07:11:01.063Z,442.5
2018-11-22T07:12:01.300Z,476.5
2018-11-22T07:13:01.103Z,513.4
2018-11-22T07:14:01.134Z,554.5
2018-11-22T07:15:01.065Z,595.7
2018-11-22T07:16:01.110Z,641.3
2018-11-22T07:17:01.308Z,692.6
2018-11-22T07:18:01.967Z,754.3
2018-11-22T07:19:01.131Z,823.5
2018-11-22T07:20:01.109Z,879.2
2018-11-22T07:21:01.096Z,932.3
2018-11-22T07:22:01.299Z,991.1
2018-11-22T07:23:01.096Z,1064.7
2018-11-22T07:24:01.151Z,1141.1
2018-11-22T07:25:01.098Z,1214.3
2018-11-22T07:26:01.225Z,1288.0
2018-11-22T07:27:01.309Z,1344.7
2018-11-22T07:28:01.096Z,1401.0
2018-11-22T07:29:06.107Z,1451.7
2018-11-22T07:30:01.106Z,1511.9
2018-11-22T07:32:01.290Z,1569.4
2018-11-22T07:33:01.087Z,1613.7
2018-11-22T07:34:01.084Z,1654.1
2018-11-22T07:35:01.085Z,1689.7
2018-11-22T07:36:01.087Z,1742.5
2018-11-22T07:37:01.290Z,1800.9
2018-11-22T07:38:01.087Z,1851.3
2018-11-22T07:39:01.117Z,1883.3
2018-11-22T07:40:01.097Z,1909.0
2018-11-22T07:41:01.087Z,1933.3
2018-11-22T07:42:01.298Z,1962.9
2018-11-22T07:43:01.170Z,2009.3
2018-11-22T07:44:01.127Z,2051.3
2018-11-22T07:45:01.094Z,2091.1
2018-11-22T07:46:01.090Z,2113.3
2018-11-22T07:47:01.294Z,2130.3
2018-11-22T07:48:02.131Z,2160.4
2018-11-22T07:49:01.093Z,2187.4
2018-11-22T07:50:01.096Z,2218.7
2018-11-22T07:51:01.093Z,2245.5
2018-11-22T07:52:01.298Z,2273.5
2018-11-22T07:53:01.108Z,2302.7
2018-11-22T07:54:01.097Z,2338.1
2018-11-22T07:55:01.094Z,2381.4
2018-11-22T07:56:01.091Z,2444.6
2018-11-22T07:57:01.304Z,2503.3
2018-11-22T07:58:01.095Z,2569.1
2018-11-22T07:59:01.097Z,2642.5
2018-11-22T08:00:01.097Z,2729.5
2018-11-22T08:01:01.120Z,2817.7
2018-11-22T08:02:01.332Z,2911.0
2018-11-22T08:03:01.100Z,2992.4
2018-11-22T08:04:01.096Z,3070.7
2018-11-22T08:05:01.104Z,3152.9
2018-11-22T08:06:01.092Z,3241.5
2018-11-22T08:07:01.300Z,3330.7
2018-11-22T08:08:01.097Z,3429.5
2018-11-22T08:09:02.051Z,3522.1
2018-11-22T08:10:01.095Z,3608.1
2018-11-22T08:11:01.097Z,3678.1
2018-11-22T08:12:01.299Z,3742.3
2018-11-22T08:13:02.002Z,3809.4
2018-11-22T08:14:01.112Z,3876.5
2018-11-22T08:15:01.105Z,3924.9
2018-11-22T08:16:01.096Z,3977.4
2018-11-22T08:17:01.291Z,4040.7
2018-11-22T08:18:01.146Z,4122.1
2018-11-22T08:19:01.102Z,4200.1
2018-11-22T08:20:01.104Z,4275.3
2018-11-22T08:21:04.821Z,4346.5
2018-11-22T08:22:01.306Z,4402.5
2018-11-22T08:23:01.103Z,4448.5
2018-11-22T08:25:01.083Z,4515.5
2018-11-22T08:26:01.339Z,4590.9
2018-11-22T08:27:01.289Z,4656.8
2018-11-22T08:28:01.084Z,4737.1
2018-11-22T08:29:01.094Z,4809.7
2018-11-22T08:30:01.085Z,4871.8
2018-11-22T08:31:01.084Z,4952.9
2018-11-22T08:32:01.315Z,5040.1
2018-11-22T08:33:01.086Z,5106.6
2018-11-22T08:34:01.089Z,5178.7
2018-11-22T08:35:01.090Z,5237.7
2018-11-22T08:36:01.084Z,5272.2
2018-11-22T08:37:01.295Z,5292.6
2018-11-22T08:38:01.055Z,5327.1
2018-11-22T08:39:01.087Z,5370.0
2018-11-22T08:40:01.111Z,5393.7
2018-11-22T08:41:01.089Z,5420.0
2018-11-22T08:42:01.290Z,5465.1
2018-11-22T08:43:02.274Z,5497.8
2018-11-22T08:44:01.086Z,5513.8
2018-11-22T08:45:01.090Z,5537.1
2018-11-22T08:46:01.093Z,5567.7
2018-11-22T08:47:01.296Z,5604.5
2018-11-22T08:48:01.294Z,5636.6
2018-11-22T08:49:01.090Z,5636.9
2018-11-22T08:50:01.095Z,5647.1
2018-11-22T08:51:01.717Z,5668.2
2018-11-22T08:52:01.294Z,5702.6
2018-11-22T08:53:01.092Z,5750.8
2018-11-22T08:54:01.093Z,5797.2
2018-11-22T08:55:01.093Z,5837.0
2018-11-22T08:56:01.090Z,5881.1
2018-11-22T08:57:01.301Z,5936.2
2018-11-22T08:58:01.103Z,5981.3
2018-11-22T08:59:01.095Z,6026.4
2018-11-22T09:00:01.097Z,6068.6
2018-11-22T09:01:01.094Z,6099.1
2018-11-22T09:02:01.322Z,6128.9
2018-11-22T09:03:01.091Z,6175.5
2018-11-22T09:04:01.069Z,6254.6
2018-11-22T09:05:01.096Z,6340.2
2018-11-22T09:06:01.095Z,6434.1
2018-11-22T09:07:01.303Z,6511.0
2018-11-22T09:08:01.098Z,6587.3
2018-11-22T09:09:01.102Z,6683.9
2018-11-22T09:10:02.342Z,6820.6
2018-11-22T09:11:01.095Z,6923.1
2018-11-22T09:12:01.300Z,6996.7
2018-11-22T09:13:01.856Z,7008.7
2018-11-22T09:14:01.094Z,7055.7
2018-11-22T09:15:01.100Z,7112.1
2018-11-22T09:16:01.068Z,7142.1
2018-11-22T09:17:01.314Z,7117.9
2018-11-22T09:18:01.097Z,7035.4
2018-11-22T09:19:01.097Z,6913.1
2018-11-22T09:20:01.094Z,6843.5
2018-11-22T09:21:01.223Z,6798.3
2018-11-22T09:22:01.238Z,6842.3
2018-11-22T09:23:01.102Z,6882.3
2018-11-22T09:24:01.102Z,6860.2
2018-11-22T09:25:01.108Z,6821.1
2018-11-22T09:26:02.120Z,6777.3
2018-11-22T09:27:01.242Z,6708.4
2018-11-22T09:28:01.101Z,6729.7
2018-11-22T09:30:06.100Z,6858.9
2018-11-22T09:31:01.086Z,7131.6
2018-11-22T09:32:01.226Z,7416.6
2018-11-22T09:33:01.084Z,7871.6
2018-11-22T09:34:01.090Z,8439.2
2018-11-22T09:35:01.135Z,9011.8
2018-11-22T09:36:01.092Z,9631.1
2018-11-22T09:37:01.229Z,10318.5
2018-11-22T09:38:01.091Z,10913.1
2018-11-22T09:39:01.088Z,11422.9
2018-11-22T09:40:01.095Z,11914.5
2018-11-22T09:41:01.089Z,12315.5
2018-11-22T09:42:01.281Z,12713.7
2018-11-22T09:43:02.144Z,13135.2
2018-11-22T09:44:01.092Z,13494.8
2018-11-22T09:45:01.097Z,13729.7
2018-11-22T09:46:01.094Z,13784.5
2018-11-22T09:47:01.302Z,13874.8
2018-11-22T09:48:01.095Z,13836.1
2018-11-22T09:49:01.089Z,13662.7
2018-11-22T09:50:01.094Z,13458.7
2018-11-22T09:51:01.184Z,13107.0
2018-11-22T09:52:01.240Z,12613.1
2018-11-22T09:53:01.093Z,12156.5
2018-11-22T09:54:01.100Z,11803.3
2018-11-22T09:55:01.094Z,11468.9
2018-11-22T09:56:02.289Z,11146.7
2018-11-22T09:57:01.239Z,10809.8
2018-11-22T09:58:01.827Z,10477.4
2018-11-22T09:59:01.128Z,10211.7
2018-11-22T10:00:01.095Z,9971.3
2018-11-22T10:01:01.099Z,9796.7
2018-11-22T10:02:01.272Z,9560.2
2018-11-22T10:03:01.169Z,9297.3
2018-11-22T10:04:01.097Z,9127.6
2018-11-22T10:05:01.266Z,8948.6
2018-11-22T10:06:01.103Z,8750.1
2018-11-22T10:07:01.244Z,8598.1
2018-11-22T10:08:01.102Z,8435.3
2018-11-22T10:09:01.139Z,8186.6
2018-11-22T10:11:01.088Z,8118.2
2018-11-22T10:12:01.249Z,8216.0
2018-11-22T10:13:01.086Z,8399.7
2018-11-22T10:14:01.053Z,8636.7
2018-11-22T10:15:06.093Z,8865.0
2018-11-22T10:16:01.088Z,9034.1
2018-11-22T10:17:01.333Z,9181.8
2018-11-22T10:18:01.096Z,9390.6
2018-11-22T10:19:01.089Z,9581.1
2018-11-22T10:20:01.086Z,9719.8
2018-11-22T10:21:01.063Z,9867.3
2018-11-22T10:22:01.229Z,9938.4
2018-11-22T10:23:01.089Z,9949.8
2018-11-22T10:24:01.091Z,9957.4
2018-11-22T10:25:01.090Z,10028.8
2018-11-22T10:26:01.059Z,9975.9
2018-11-22T10:27:01.296Z,9887.9
2018-11-22T10:28:01.101Z,9814.4
2018-11-22T10:29:01.091Z,9741.2
2018-11-22T10:30:01.125Z,9704.5
2018-11-22T10:31:01.091Z,9718.5
2018-11-22T10:32:01.237Z,9685.9
2018-11-22T10:33:01.094Z,9587.7
2018-11-22T10:34:01.095Z,9481.6
2018-11-22T10:35:01.155Z,9388.9
2018-11-22T10:36:01.097Z,9330.6
2018-11-22T10:37:01.234Z,9397.7
2018-11-22T10:38:01.245Z,9523.2
2018-11-22T10:39:01.153Z,9623.3
2018-11-22T10:40:01.124Z,9710.2
2018-11-22T10:41:01.100Z,9765.9
2018-11-22T10:42:01.240Z,9717.2
2018-11-22T10:43:01.097Z,9588.4
2018-11-22T10:44:01.067Z,9361.7
2018-11-22T10:45:01.133Z,9043.3
2018-11-22T10:46:01.099Z,8712.7
2018-11-22T10:47:01.234Z,8429.5
2018-11-22T10:48:01.100Z,8194.7
2018-11-22T10:49:01.102Z,8025.1
2018-11-22T10:50:01.128Z,7867.7
2018-11-22T10:51:01.095Z,7721.9
2018-11-22T10:52:01.241Z,7592.2
2018-11-22T10:53:01.064Z,7491.9
2018-11-22T10:54:01.096Z,7495.8
2018-11-22T10:55:01.138Z,7615.0
2018-11-22T10:56:01.098Z,7826.4
2018-11-22T10:57:01.239Z,8089.2
2018-11-22T10:58:01.106Z,8317.1
2018-11-22T10:59:01.098Z,8484.5
2018-11-22T11:00:01.141Z,8620.0
2018-11-22T11:01:01.154Z,8696.1
2018-11-22T11:02:01.274Z,8737.3
2018-11-22T11:03:01.104Z,8760.6
2018-11-22T11:04:01.111Z,8752.7
2018-11-22T11:05:01.130Z,8768.9
2018-11-22T11:06:01.110Z,8818.7
2018-11-22T11:07:01.302Z,8910.0
2018-11-22T11:08:01.099Z,8989.0
2018-11-22T11:09:01.100Z,8992.0
2018-11-22T11:10:06.113Z,8884.8
2018-11-22T11:11:01.070Z,8699.0
2018-11-22T11:12:01.272Z,8514.5
2018-11-22T11:13:01.105Z,8385.3
2018-11-22T11:15:06.102Z,8363.2
2018-11-22T11:16:01.091Z,8437.5
2018-11-22T11:17:01.204Z,8572.7
2018-11-22T11:18:01.095Z,8676.6
2018-11-22T11:19:01.089Z,8792.3
2018-11-22T11:20:06.260Z,8945.0
2018-11-22T11:21:01.086Z,9085.7
2018-11-22T11:22:01.234Z,9186.7
2018-11-22T11:23:01.986Z,9249.9
2018-11-22T11:24:01.089Z,9302.3
2018-11-22T11:25:01.094Z,9357.5
2018-11-22T11:26:01.058Z,9417.1
2018-11-22T11:27:01.229Z,9475.9
2018-11-22T11:28:01.117Z,9515.6
2018-11-22T11:29:01.097Z,9576.9
2018-11-22T11:30:01.092Z,9655.5
2018-11-22T11:31:01.096Z,9735.3
2018-11-22T11:32:01.361Z,9815.7
2018-11-22T11:33:01.093Z,9944.1
2018-11-22T11:34:01.091Z,10043.3
2018-11-22T11:35:01.094Z,10118.5
2018-11-22T11:36:01.091Z,10202.6
2018-11-22T11:37:01.230Z,10304.6
2018-11-22T11:38:01.091Z,10420.7
2018-11-22T11:39:01.090Z,10552.3
2018-11-22T11:40:01.105Z,10699.1
2018-11-22T11:41:01.059Z,10879.4
2018-11-22T11:42:01.238Z,11052.5
2018-11-22T11:43:01.093Z,11220.3
2018-11-22T11:44:01.100Z,11371.7
2018-11-22T11:45:06.105Z,11512.5
2018-11-22T11:46:01.110Z,11609.4
2018-11-22T11:47:01.238Z,11673.7
2018-11-22T11:48:01.095Z,11730.1
2018-11-22T11:49:02.106Z,11824.1
2018-11-22T11:50:06.113Z,11928.1
2018-11-22T11:51:01.100Z,12014.5
2018-11-22T11:52:01.253Z,12083.6
2018-11-22T11:53:01.172Z,12112.8
2018-11-22T11:54:06.107Z,12108.0
2018-11-22T11:55:01.110Z,12071.4
2018-11-22T11:56:01.098Z,12000.9
2018-11-22T11:57:01.542Z,11947.8
2018-11-22T11:58:01.098Z,11916.6
2018-11-22T11:59:06.112Z,11871.5
2018-11-22T12:00:01.108Z,11808.5
2018-11-22T12:01:06.098Z,11735.3
2018-11-22T12:02:02.627Z,11665.9
2018-11-22T12:03:01.103Z,11599.7
2018-11-22T12:04:01.100Z,11516.6
2018-11-22T12:05:01.102Z,11418.2
2018-11-22T12:06:06.109Z,11320.9
2018-11-22T12:07:01.244Z,11225.6
2018-11-22T12:08:01.109Z,11158.6
2018-11-22T12:09:01.162Z,11105.7
2018-11-22T12:10:01.101Z,11066.9
2018-11-22T12:11:06.104Z,11009.1
2018-11-22T12:12:01.243Z,10932.1
2018-11-22T12:13:01.104Z,10831.0
2018-11-22T12:14:01.102Z,10737.6
2018-11-22T12:15:01.103Z,10646.1
2018-11-22T12:16:06.111Z,10582.3
2018-11-22T12:18:01.238Z,10535.8
2018-11-22T12:19:01.063Z,10496.3
2018-11-22T12:20:01.086Z,10457.3
2018-11-22T12:21:01.121Z,10437.3
2018-11-22T12:22:01.092Z,10437.0
2018-11-22T12:23:01.303Z,10457.9
2018-11-22T12:24:01.055Z,10494.9
2018-11-22T12:25:01.092Z,10524.1
2018-11-22T12:26:01.125Z,10529.9
2018-11-22T12:27:01.089Z,10552.1
2018-11-22T12:28:01.231Z,10561.3
2018-11-22T12:29:01.091Z,10561.9
2018-11-22T12:30:01.094Z,10546.0
2018-11-22T12:31:06.220Z,10531.5
2018-11-22T12:32:01.088Z,10498.0
2018-11-22T12:33:01.233Z,10485.7
2018-11-22T12:34:01.096Z,10479.0
2018-11-22T12:35:01.091Z,10489.7
2018-11-22T12:36:01.113Z,10487.9
2018-11-22T12:37:01.120Z,10430.9
2018-11-22T12:38:01.233Z,10331.6
2018-11-22T12:39:01.099Z,10184.1
2018-11-22T12:40:01.113Z,10040.7
2018-11-22T12:41:01.093Z,9906.1
2018-11-22T12:42:01.118Z,9757.2
2018-11-22T12:43:01.233Z,9645.1
2018-11-22T12:44:01.092Z,9557.8
2018-11-22T12:45:01.092Z,9492.3
2018-11-22T12:46:01.097Z,9441.8
2018-11-22T12:47:01.120Z,9425.2
2018-11-22T12:48:01.235Z,9399.7
2018-11-22T12:49:01.101Z,9385.7
2018-11-22T12:50:01.097Z,9367.3
2018-11-22T12:51:01.122Z,9375.3
2018-11-22T12:52:01.096Z,9435.6
2018-11-22T12:53:02.194Z,9539.7
2018-11-22T12:54:01.096Z,9667.5
2018-11-22T12:55:01.142Z,9790.7
2018-11-22T12:56:06.119Z,9906.3
2018-11-22T12:57:01.141Z,10020.4
2018-11-22T12:58:01.237Z,10101.3
2018-11-22T12:59:01.106Z,10166.3
2018-11-22T13:00:01.099Z,10199.0
2018-11-22T13:01:01.126Z,10198.7
2018-11-22T13:02:01.097Z,10151.5
2018-11-22T13:03:01.266Z,10073.3
2018-11-22T13:04:01.101Z,9977.3
2018-11-22T13:05:01.073Z,9888.1
2018-11-22T13:06:02.054Z,9804.6
2018-11-22T13:07:01.100Z,9727.3
2018-11-22T13:08:01.340Z,9636.7
2018-11-22T13:09:01.101Z,9522.1
2018-11-22T13:10:01.103Z,9400.7
2018-11-22T13:11:01.105Z,9277.3
2018-11-22T13:12:01.103Z,9136.9
2018-11-22T13:13:01.283Z,8958.7
2018-11-22T13:14:01.108Z,8748.5
2018-11-22T13:15:01.100Z,8523.7
2018-11-22T13:16:01.101Z,8302.7
2018-11-22T13:18:01.260Z,8087.1
2018-11-22T13:19:02.175Z,7899.9
2018-11-22T13:20:01.057Z,7705.7
2018-11-22T13:21:01.128Z,7505.5
2018-11-22T13:22:01.095Z,7302.4
2018-11-22T13:23:01.268Z,7121.6
2018-11-22T13:24:01.091Z,6946.6
2018-11-22T13:25:01.058Z,6795.4
2018-11-22T13:26:01.091Z,6685.7
2018-11-22T13:27:01.093Z,6591.8
2018-11-22T13:28:01.270Z,6541.8
2018-11-22T13:29:01.091Z,6563.1
2018-11-22T13:30:01.093Z,6637.2
2018-11-22T13:31:01.097Z,6762.5
2018-11-22T13:32:01.091Z,6906.2
2018-11-22T13:33:01.284Z,7086.1
2018-11-22T13:34:01.095Z,7254.8
2018-11-22T13:35:01.098Z,7424.6
2018-11-22T13:36:01.097Z,7568.4
2018-11-22T13:37:01.098Z,7709.8
2018-11-22T13:38:01.276Z,7759.1
2018-11-22T13:39:01.095Z,7765.1
2018-11-22T13:40:01.099Z,7747.5
2018-11-22T13:41:01.095Z,7700.9
2018-11-22T13:42:01.097Z,7655.9
2018-11-22T13:43:01.481Z,7593.1
2018-11-22T13:44:01.099Z,7504.8
2018-11-22T13:45:01.102Z,7406.0
2018-11-22T13:46:01.098Z,7302.4
2018-11-22T13:47:01.098Z,7202.3
2018-11-22T13:48:01.307Z,7095.9
2018-11-22T13:49:01.103Z,6994.7
2018-11-22T13:50:01.097Z,6912.0
2018-11-22T13:51:01.099Z,6848.7
2018-11-22T13:52:01.165Z,6757.3
2018-11-22T13:53:01.276Z,6701.8
2018-11-22T13:54:01.070Z,6684.9
2018-11-22T13:55:01.101Z,6690.3
2018-11-22T13:56:01.104Z,6680.1
2018-11-22T13:57:01.103Z,6642.3
2018-11-22T13:58:01.338Z,6599.4
2018-11-22T13:59:01.101Z,6535.7
2018-11-22T14:01:01.086Z,6454.2
2018-11-22T14:02:01.087Z,6373.1
2018-11-22T14:03:01.259Z,6285.5
2018-11-22T14:04:01.059Z,6181.9
2018-11-22T14:05:01.123Z,6053.1
2018-11-22T14:06:01.088Z,5893.3
2018-11-22T14:07:01.089Z,5714.6
2018-11-22T14:08:01.317Z,5537.4
2018-11-22T14:09:01.089Z,5372.5
2018-11-22T14:10:06.101Z,5200.7
2018-11-22T14:11:01.093Z,5030.1
2018-11-22T14:12:01.090Z,4860.9
2018-11-22T14:13:01.230Z,4700.5
2018-11-22T14:14:06.102Z,4539.7
2018-11-22T14:15:01.095Z,4396.1
2018-11-22T14:16:01.096Z,4259.1
2018-11-22T14:17:01.097Z,4110.1
2018-11-22T14:18:01.318Z,3953.2
2018-11-22T14:19:06.095Z,3794.0
2018-11-22T14:20:01.098Z,3649.7
2018-11-22T14:21:01.096Z,3521.7
2018-11-22T14:22:01.100Z,3413.6
2018-11-22T14:23:01.240Z,3302.9
2018-11-22T14:24:01.128Z,3190.6
2018-11-22T14:25:01.098Z,3074.2
2018-11-22T14:26:01.095Z,2956.1
2018-11-22T14:27:01.190Z,2846.7
2018-11-22T14:28:01.240Z,2753.5
2018-11-22T14:29:01.123Z,2665.0
2018-11-22T14:30:01.099Z,2578.1
2018-11-22T14:31:01.225Z,2498.0
2018-11-22T14:32:01.098Z,2423.2
2018-11-22T14:33:01.247Z,2359.3
2018-11-22T14:34:01.138Z,2310.1
2018-11-22T14:35:01.143Z,2265.3
2018-11-22T14:36:01.112Z,2218.7
2018-11-22T14:37:01.098Z,2166.1
2018-11-22T14:38:01.244Z,2109.9
2018-11-22T14:39:01.131Z,2052.1
2018-11-22T14:40:01.165Z,1992.3
2018-11-22T14:41:01.103Z,1932.3
2018-11-22T14:42:01.101Z,1874.6
2018-11-22T14:44:01.357Z,1812.5
2018-11-22T14:45:01.093Z,1754.1
2018-11-22T14:46:01.217Z,1700.6
2018-11-22T14:47:01.096Z,1650.3
2018-11-22T14:48:01.094Z,1600.9
2018-11-22T14:49:02.256Z,1556.5
2018-11-22T14:50:01.054Z,1504.5
2018-11-22T14:51:01.093Z,1442.2
2018-11-22T14:52:01.115Z,1380.6
2018-11-22T14:53:01.062Z,1316.9
2018-11-22T14:54:01.295Z,1264.3
2018-11-22T14:55:01.092Z,1215.7
2018-11-22T14:56:01.092Z,1173.1
2018-11-22T14:57:01.243Z,1137.5
2018-11-22T14:58:01.098Z,1106.9
2018-11-22T14:59:01.229Z,1079.9
2018-11-22T15:00:01.093Z,1048.8
2018-11-22T15:01:01.104Z,1027.5
2018-11-22T15:02:01.386Z,1006.9
2018-11-22T15:03:01.090Z,984.6
2018-11-22T15:04:01.258Z,957.7
2018-11-22T15:05:01.095Z,929.1
2018-11-22T15:06:01.095Z,904.0
2018-11-22T15:07:01.090Z,872.8
2018-11-22T15:08:01.093Z,842.1
2018-11-22T15:09:01.258Z,810.9
2018-11-22T15:10:01.217Z,779.9
2018-11-22T15:11:01.094Z,747.7
2018-11-22T15:12:01.097Z,710.9
2018-11-22T15:13:01.093Z,672.5
2018-11-22T15:14:01.262Z,634.9
2018-11-22T15:15:01.098Z,600.5
2018-11-22T15:16:01.097Z,557.7
2018-11-22T15:17:01.096Z,511.4
2018-11-22T15:18:06.102Z,465.6
2018-11-22T15:19:01.233Z,421.8
2018-11-22T15:20:01.240Z,384.3
2018-11-22T15:21:01.369Z,353.2
2018-11-22T15:22:01.098Z,325.9
2018-11-22T15:23:06.099Z,301.2
2018-11-22T15:24:01.242Z,277.4
2018-11-22T15:25:01.099Z,255.8
2018-11-22T15:26:01.099Z,236.0
2018-11-22T15:27:01.065Z,217.4
2018-11-22T15:28:06.096Z,199.3
2018-11-22T15:29:01.242Z,181.2
2018-11-22T15:30:01.101Z,165.1
2018-11-22T15:31:01.109Z,150.1
2018-11-22T15:32:01.099Z,136.9
2018-11-22T15:33:06.109Z,124.9
2018-11-22T15:34:01.245Z,113.9
2018-11-22T15:35:01.147Z,103.3
2018-11-22T15:36:01.104Z,92.9
2018-11-22T15:37:01.074Z,83.8
2018-11-22T15:39:01.227Z,75.1
2018-11-22T15:40:01.056Z,66.9
2018-11-22T15:41:02.102Z,59.3
2018-11-22T15:42:01.088Z,52.3
2018-11-22T15:43:01.118Z,45.7
2018-11-22T15:44:01.235Z,40.2
2018-11-22T15:45:01.089Z,35.3
2018-11-22T15:46:01.087Z,29.5
2018-11-22T15:47:01.057Z,24.8
2018-11-22T15:48:01.135Z,20.5
2018-11-22T15:49:01.299Z,16.7
2018-11-22T15:50:01.123Z,13.7
2018-11-22T15:51:01.090Z,11.3
2018-11-22T15:52:01.092Z,9.4
2018-11-22T15:53:01.176Z,7.8
2018-11-22T15:54:01.299Z,6.6
2018-11-22T15:55:06.103Z,5.6
2018-11-22T15:56:01.089Z,4.8
2018-11-22T15:57:01.093Z,4.1
2018-11-22T15:58:02.098Z,3.5
2018-11-22T15:59:01.310Z,3.1
2018-11-22T16:00:01.117Z,2.7
2018-11-22T16:01:01.066Z,2.3
2018-11-22T16:02:01.098Z,2.1
2018-11-22T16:03:01.091Z,1.9
2018-11-22T16:04:01.235Z,1.7
2018-11-22T16:05:01.125Z,1.5
2018-11-22T16:06:01.101Z,1.4
2018-11-22T16:07:01.092Z,1.3
2018-11-22T16:08:01.096Z,1.2
2018-11-22T16:09:01.300Z,1.1
2018-11-22T16:11:01.422Z,1.0
2018-11-22T16:15:01.240Z,0.9
2018-11-22T16:17:01.098Z,0.8
2018-11-22T16:18:01.143Z,0.7
2018-11-22T16:20:01.278Z,0.6
2018-11-22T16:21:01.096Z,0.5
2018-11-22T16:23:01.102Z,0.4
2018-11-22T16:24:01.097Z,0.3
2018-11-22T16:26:01.240Z,0.2
2018-11-22T16:27:01.101Z,0.1
2018-11-22T21:44:01.261Z,0.1
2018-11-22T21:45:01.097Z,0.1
2018-11-22T21:46:01.069Z,0.2
2018-11-22T21:47:01.100Z,0.3
2018-11-22T22:00:01.259Z,0.3
2018-11-22T22:01:01.084Z,0.2
2018-11-22T22:02:01.053Z,0.1
